createdAt,value
2023-03-08T00:02:14.806Z,-1.01
2023-03-08T00:07:11.401Z,-1.03
2023-03-08T00:12:08.386Z,-1.10
2023-03-08T00:17:05.104Z,-1.16
2023-03-08T00:22:01.614Z,-1.19
2023-03-08T00:26:58.015Z,-1.24
2023-03-08T00:31:54.403Z,-1.27
2023-03-08T00:36:50.835Z,-1.30
2023-03-08T00:41:47.245Z,-1.28
2023-03-08T00:46:43.739Z,-1.36
2023-03-08T00:51:40.138Z,-1.34
2023-03-08T00:56:36.577Z,-1.37
2023-03-08T01:01:33.485Z,-1.38
2023-03-08T01:06:29.907Z,-1.42
2023-03-08T01:11:27.602Z,-1.46
2023-03-08T01:16:27.890Z,-1.54
2023-03-08T01:21:25.186Z,-1.55
2023-03-08T01:26:24.244Z,-1.57
2023-03-08T01:31:23.468Z,-1.57
2023-03-08T01:36:22.361Z,-1.64
2023-03-08T01:41:25.091Z,-1.66
2023-03-08T01:46:35.020Z,-1.70
2023-03-08T01:51:46.664Z,-1.68
2023-03-08T01:56:44.916Z,-1.69
2023-03-08T02:01:41.541Z,-1.72
2023-03-08T02:06:38.031Z,-1.73
2023-03-08T02:11:36.902Z,-1.75
2023-03-08T02:16:33.306Z,-1.75
2023-03-08T02:21:31.358Z,-1.77
2023-03-08T02:26:27.784Z,-1.78
2023-03-08T02:31:24.210Z,-1.78
2023-03-08T02:36:20.697Z,-1.68
2023-03-08T02:41:17.222Z,-1.38
2023-03-08T02:46:14.528Z,-1.18
2023-03-08T02:51:10.953Z,-1.06
2023-03-08T02:56:07.720Z,-1.12
2023-03-08T03:01:04.226Z,-1.12
2023-03-08T03:06:00.727Z,-1.12
2023-03-08T03:10:57.216Z,-1.18
2023-03-08T03:15:53.677Z,-1.19
2023-03-08T03:20:50.155Z,-1.15
2023-03-08T03:25:46.594Z,-1.14
2023-03-08T03:30:43.319Z,-1.06
2023-03-08T03:35:39.851Z,-1.03
2023-03-08T03:40:36.254Z,-0.98
2023-03-08T03:45:32.635Z,-0.96
2023-03-08T03:50:29.114Z,-0.85
2023-03-08T03:55:25.485Z,-0.77
2023-03-08T04:00:22.146Z,-0.75
2023-03-08T04:05:18.599Z,-0.71
2023-03-08T04:10:15.029Z,-0.78
2023-03-08T04:15:11.746Z,-0.74
2023-03-08T04:20:09.061Z,-0.72
2023-03-08T04:25:05.912Z,-0.71
2023-03-08T04:30:02.714Z,-0.77
2023-03-08T04:34:59.211Z,-0.79
2023-03-08T04:39:55.727Z,-0.75
2023-03-08T04:44:52.130Z,-0.68
2023-03-08T04:49:48.515Z,-0.69
2023-03-08T04:54:44.977Z,-0.71
2023-03-08T04:59:43.842Z,-0.68
2023-03-08T05:04:40.299Z,-0.65
2023-03-08T05:09:36.766Z,-0.70
2023-03-08T05:14:33.153Z,-0.74
2023-03-08T05:19:29.626Z,-0.74
2023-03-08T05:24:27.225Z,-0.71
2023-03-08T05:29:23.598Z,-0.65
2023-03-08T05:34:20.063Z,-0.68
2023-03-08T05:39:16.516Z,-0.64
2023-03-08T05:44:13.007Z,-0.64
2023-03-08T05:49:09.408Z,-0.65
2023-03-08T05:54:06.119Z,-0.59
2023-03-08T05:59:03.010Z,-0.60
2023-03-08T06:03:59.425Z,-0.58
2023-03-08T06:08:56.385Z,-0.68
2023-03-08T06:13:52.954Z,-0.64
2023-03-08T06:18:49.384Z,-0.69
2023-03-08T06:23:46.123Z,-0.78
2023-03-08T06:28:42.781Z,-0.61
2023-03-08T06:33:39.156Z,-0.59
2023-03-08T06:38:38.200Z,-0.55
2023-03-08T06:43:35.666Z,-0.65
2023-03-08T06:48:32.524Z,-0.64
2023-03-08T06:53:29.227Z,-0.50
2023-03-08T06:58:25.678Z,-0.54
2023-03-08T07:03:22.927Z,-0.50
2023-03-08T07:08:19.423Z,-0.54
2023-03-08T07:13:15.849Z,-0.44
2023-03-08T07:18:13.583Z,-0.50
2023-03-08T07:23:11.018Z,-0.31
2023-03-08T07:28:07.505Z,-0.17
2023-03-08T07:33:04.397Z,-0.15
2023-03-08T07:38:00.956Z,-0.09
2023-03-08T07:42:57.527Z,-0.02
2023-03-08T07:47:54.197Z,-0.19
2023-03-08T07:52:50.614Z,0.13
2023-03-08T07:57:47.044Z,0.12
2023-03-08T08:02:43.486Z,0.03
2023-03-08T08:07:39.874Z,0.11
2023-03-08T08:12:36.242Z,0.17
2023-03-08T08:17:32.631Z,0.13
2023-03-08T08:22:29.011Z,0.32
2023-03-08T08:27:25.452Z,0.49
2023-03-08T08:32:21.907Z,0.59
2023-03-08T08:37:18.362Z,0.59
2023-03-08T08:42:14.804Z,0.69
2023-03-08T08:47:11.300Z,0.73
2023-03-08T08:52:07.700Z,0.77
2023-03-08T08:57:04.144Z,0.81
2023-03-08T09:02:00.825Z,0.79
2023-03-08T09:06:57.456Z,0.79
2023-03-08T09:11:55.716Z,0.77
2023-03-08T09:16:53.151Z,0.86
2023-03-08T09:21:49.665Z,0.70
2023-03-08T09:26:47.142Z,0.69
2023-03-08T09:31:45.171Z,0.75
2023-03-08T09:36:42.543Z,0.67
2023-03-08T09:41:41.498Z,0.71
2023-03-08T09:46:46.067Z,0.73
2023-03-08T09:51:47.289Z,0.69
2023-03-08T09:56:49.721Z,0.67
2023-03-08T10:02:00.862Z,0.86
2023-03-08T10:07:21.346Z,1.13
2023-03-08T10:12:32.039Z,0.94
2023-03-08T10:17:39.324Z,1.21
2023-03-08T10:22:42.302Z,1.25
2023-03-08T10:27:38.732Z,1.39
2023-03-08T10:32:43.744Z,1.33
2023-03-08T10:37:40.461Z,1.33
2023-03-08T10:42:37.241Z,1.38
2023-03-08T10:47:35.454Z,1.61
2023-03-08T10:52:31.888Z,1.72
2023-03-08T10:57:29.260Z,1.66
2023-03-08T11:02:25.690Z,1.81
2023-03-08T11:07:25.855Z,1.73
2023-03-08T11:12:26.461Z,1.97
2023-03-08T11:17:33.366Z,2.18
2023-03-08T11:22:54.582Z,2.33
2023-03-08T11:28:23.889Z,2.33
2023-03-08T11:33:53.424Z,2.68
2023-03-08T11:39:15.674Z,2.50
2023-03-08T11:44:17.955Z,2.47
2023-03-08T11:49:25.948Z,2.57
2023-03-08T11:54:42.748Z,2.49
2023-03-08T11:59:56.874Z,2.51
2023-03-08T12:05:02.369Z,2.60
2023-03-08T12:10:03.754Z,2.80
2023-03-08T12:15:07.798Z,3.11
2023-03-08T12:20:09.083Z,3.05
2023-03-08T12:25:31.900Z,3.50
2023-03-08T12:30:41.535Z,3.62
2023-03-08T12:35:49.365Z,3.66
2023-03-08T12:40:51.200Z,3.71
2023-03-08T12:45:56.684Z,3.73
2023-03-08T12:51:14.231Z,3.87
2023-03-08T12:56:10.606Z,3.53
2023-03-08T13:01:30.312Z,3.85
2023-03-08T13:06:36.918Z,3.89
2023-03-08T13:11:44.577Z,3.64
2023-03-08T13:16:41.053Z,3.66
2023-03-08T13:21:41.535Z,3.79
2023-03-08T13:27:05.548Z,3.53
2023-03-08T13:32:11.771Z,3.47
2023-03-08T13:37:25.599Z,3.65
2023-03-08T13:42:26.981Z,3.48
2023-03-08T13:47:33.783Z,3.97
2023-03-08T13:52:36.381Z,3.85
2023-03-08T13:57:35.200Z,4.16
2023-03-08T14:02:32.371Z,4.21
2023-03-08T14:07:32.104Z,4.18
2023-03-08T14:12:31.967Z,4.21
2023-03-08T14:17:31.615Z,4.18
2023-03-08T14:22:39.200Z,4.07
2023-03-08T14:27:41.399Z,4.05
2023-03-08T14:32:38.525Z,4.02
2023-03-08T14:37:35.565Z,4.13
2023-03-08T14:42:46.922Z,3.96
2023-03-08T14:47:58.780Z,4.03
2023-03-08T14:52:56.372Z,4.29
2023-03-08T14:57:59.740Z,4.75
2023-03-08T15:02:57.819Z,4.48
2023-03-08T15:07:54.952Z,4.41
2023-03-08T15:12:51.678Z,4.16
2023-03-08T15:17:51.844Z,3.94
2023-03-08T15:22:52.767Z,3.91
2023-03-08T15:27:49.898Z,3.76
2023-03-08T15:32:46.693Z,3.77
2023-03-08T15:37:43.886Z,3.74
2023-03-08T15:42:40.628Z,3.58
2023-03-08T15:47:37.352Z,3.49
2023-03-08T15:52:33.880Z,3.43
2023-03-08T15:57:30.249Z,3.33
2023-03-08T16:02:26.955Z,3.29
2023-03-08T16:07:23.539Z,3.07
2023-03-08T16:12:20.001Z,3.04
2023-03-08T16:17:17.674Z,2.96
2023-03-08T16:22:14.207Z,2.91
2023-03-08T16:27:10.745Z,3.01
2023-03-08T16:32:07.395Z,2.90
2023-03-08T16:37:05.381Z,2.71
2023-03-08T16:42:01.912Z,2.51
2023-03-08T16:46:58.316Z,2.42
2023-03-08T16:51:55.544Z,2.41
2023-03-08T16:56:51.947Z,2.27
2023-03-08T17:01:49.841Z,2.10
2023-03-08T17:06:46.549Z,1.99
2023-03-08T17:11:43.206Z,1.83
2023-03-08T17:16:40.081Z,1.87
2023-03-08T17:21:38.250Z,1.68
2023-03-08T17:26:40.190Z,1.72
2023-03-08T17:31:36.760Z,1.66
2023-03-08T17:36:33.304Z,1.51
2023-03-08T17:41:29.853Z,1.53
2023-03-08T17:46:27.458Z,1.44
2023-03-08T17:51:26.535Z,1.33
2023-03-08T17:56:29.413Z,1.33
2023-03-08T18:01:28.245Z,1.32
2023-03-08T18:06:30.818Z,1.26
2023-03-08T18:11:27.531Z,1.19
2023-03-08T18:16:23.995Z,1.18
2023-03-08T18:21:21.453Z,1.11
2023-03-08T18:26:18.633Z,1.20
2023-03-08T18:31:18.067Z,1.12
2023-03-08T18:36:14.647Z,1.12
2023-03-08T18:41:25.442Z,1.11
2023-03-08T18:46:28.468Z,0.91
2023-03-08T18:51:24.982Z,0.84
2023-03-08T18:56:22.276Z,0.77
2023-03-08T19:01:18.795Z,0.62
2023-03-08T19:06:15.415Z,0.58
2023-03-08T19:11:13.187Z,0.60
2023-03-08T19:16:21.576Z,0.63
2023-03-08T19:21:20.579Z,0.53
2023-03-08T19:26:38.836Z,0.53
2023-03-08T19:31:40.247Z,0.45
2023-03-08T19:36:37.734Z,0.47
2023-03-08T19:41:34.148Z,0.40
2023-03-08T19:46:30.801Z,0.36
2023-03-08T19:51:27.307Z,0.48
2023-03-08T19:56:24.870Z,0.38
2023-03-08T20:01:21.826Z,0.43
2023-03-08T20:06:36.840Z,0.43
2023-03-08T20:11:33.419Z,0.45
2023-03-08T20:16:30.368Z,0.45
2023-03-08T20:21:29.549Z,0.42
2023-03-08T20:26:29.065Z,0.41
2023-03-08T20:31:27.436Z,0.51
2023-03-08T20:36:24.143Z,0.46
2023-03-08T20:41:22.764Z,0.36
2023-03-08T20:46:21.129Z,0.41
2023-03-08T20:51:19.394Z,0.37
2023-03-08T20:56:17.962Z,0.33
2023-03-08T21:01:17.297Z,0.29
2023-03-08T21:06:19.176Z,0.26
2023-03-08T21:11:16.540Z,0.30
2023-03-08T21:16:15.560Z,0.29
2023-03-08T21:21:23.938Z,0.22
2023-03-08T21:26:21.905Z,0.13
2023-03-08T21:31:19.874Z,0.05
2023-03-08T21:36:16.843Z,0.04
2023-03-08T21:41:24.609Z,0.07
2023-03-08T21:46:21.380Z,-0.02
2023-03-08T21:51:17.904Z,-0.18
2023-03-08T21:56:16.713Z,-0.11
2023-03-08T22:01:19.189Z,0.01
2023-03-08T22:06:15.450Z,0.08
2023-03-08T22:11:12.040Z,0.07
2023-03-08T22:16:08.938Z,0.09
2023-03-08T22:21:05.421Z,0.09
2023-03-08T22:26:01.965Z,0.12
2023-03-08T22:30:58.353Z,0.02
2023-03-08T22:35:54.835Z,0.15
2023-03-08T22:40:51.276Z,0.22
2023-03-08T22:45:47.722Z,0.14
2023-03-08T22:50:44.119Z,0.13
2023-03-08T22:55:47.209Z,0.05
2023-03-08T23:00:43.631Z,0.08
2023-03-08T23:05:40.112Z,0.09
2023-03-08T23:10:37.394Z,-0.01
2023-03-08T23:15:33.809Z,-0.08
2023-03-08T23:20:30.455Z,-0.17
2023-03-08T23:25:26.850Z,-0.17
2023-03-08T23:30:23.273Z,-0.24
2023-03-08T23:35:19.825Z,-0.27
2023-03-08T23:40:16.354Z,-0.35
2023-03-08T23:45:12.776Z,-0.33
2023-03-08T23:50:09.670Z,-0.37
2023-03-08T23:55:06.818Z,-0.39
